createdAt,value
2019-03-13T00:02:29.411Z,5.16
2019-03-13T00:04:57.307Z,5.11
2019-03-13T00:07:25.026Z,5.19
2019-03-13T00:09:52.793Z,5.20
2019-03-13T00:12:20.498Z,5.21
2019-03-13T00:14:48.451Z,5.19
2019-03-13T00:17:16.455Z,5.30
2019-03-13T00:19:44.351Z,5.28
2019-03-13T00:22:12.261Z,5.28
2019-03-13T00:24:40.244Z,5.23
2019-03-13T00:27:08.262Z,5.22
2019-03-13T00:29:37.001Z,5.28
2019-03-13T00:32:06.768Z,5.23
2019-03-13T00:34:34.855Z,5.22
2019-03-13T00:37:02.935Z,5.27
2019-03-13T00:39:31.018Z,5.24
2019-03-13T00:41:59.039Z,5.28
2019-03-13T00:44:27.126Z,5.31
2019-03-13T00:46:55.143Z,5.31
2019-03-13T00:49:23.394Z,5.32
2019-03-13T00:51:51.420Z,5.36
2019-03-13T00:54:19.502Z,5.45
2019-03-13T00:56:47.420Z,5.37
2019-03-13T00:59:15.522Z,5.44
2019-03-13T01:01:50.010Z,5.35
2019-03-13T01:04:40.781Z,5.39
2019-03-13T01:07:10.226Z,5.34
2019-03-13T01:09:38.367Z,5.32
2019-03-13T01:12:06.893Z,5.37
2019-03-13T01:14:35.726Z,5.33
2019-03-13T01:17:04.480Z,5.38
2019-03-13T01:19:32.472Z,5.45
2019-03-13T01:22:00.512Z,5.35
2019-03-13T01:24:28.731Z,5.33
2019-03-13T01:26:56.793Z,5.32
2019-03-13T01:29:28.848Z,5.28
2019-03-13T01:32:19.132Z,5.22
2019-03-13T01:34:55.270Z,5.21
2019-03-13T01:37:23.299Z,5.17
2019-03-13T01:39:51.216Z,5.19
2019-03-13T01:42:19.320Z,5.15
2019-03-13T01:44:47.244Z,5.18
2019-03-13T01:47:15.219Z,5.15
2019-03-13T01:49:43.192Z,5.14
2019-03-13T01:52:11.270Z,5.05
2019-03-13T01:54:39.508Z,5.01
2019-03-13T01:57:07.434Z,5.00
2019-03-13T01:59:35.472Z,4.98
2019-03-13T02:02:03.682Z,4.95
2019-03-13T02:04:31.834Z,4.91
2019-03-13T02:06:59.953Z,4.95
2019-03-13T02:09:27.978Z,4.97
2019-03-13T02:11:56.106Z,5.01
2019-03-13T02:14:24.118Z,4.99
2019-03-13T02:16:52.250Z,4.99
2019-03-13T02:19:20.176Z,5.01
2019-03-13T02:21:48.303Z,5.05
2019-03-13T02:24:16.361Z,5.06
2019-03-13T02:26:44.789Z,5.14
2019-03-13T02:29:13.318Z,5.11
2019-03-13T02:31:41.458Z,5.17
2019-03-13T02:34:09.498Z,5.15
2019-03-13T02:36:37.605Z,5.16
2019-03-13T02:39:06.011Z,5.16
2019-03-13T02:41:34.114Z,5.15
2019-03-13T02:44:02.130Z,5.13
2019-03-13T02:46:30.125Z,5.17
2019-03-13T02:48:58.023Z,5.17
2019-03-13T02:51:26.026Z,5.19
2019-03-13T02:53:54.091Z,5.26
2019-03-13T02:56:22.075Z,5.27
2019-03-13T02:58:50.314Z,5.32
2019-03-13T03:01:38.342Z,5.35
2019-03-13T03:04:08.901Z,5.30
2019-03-13T03:06:36.909Z,5.28
2019-03-13T03:09:07.547Z,5.30
2019-03-13T03:11:35.622Z,5.30
2019-03-13T03:14:03.650Z,5.35
2019-03-13T03:16:31.681Z,5.35
2019-03-13T03:18:59.705Z,5.36
2019-03-13T03:21:28.355Z,5.40
2019-03-13T03:23:56.543Z,5.34
2019-03-13T03:26:24.580Z,5.31
2019-03-13T03:28:52.604Z,5.32
2019-03-13T03:31:20.649Z,5.29
2019-03-13T03:34:02.041Z,5.34
2019-03-13T03:36:31.070Z,5.34
2019-03-13T03:39:00.004Z,5.38
2019-03-13T03:41:28.400Z,5.35
2019-03-13T03:43:56.710Z,5.41
2019-03-13T03:46:24.736Z,5.42
2019-03-13T03:48:52.846Z,5.42
2019-03-13T03:51:20.981Z,5.38
2019-03-13T03:53:48.949Z,5.46
2019-03-13T03:56:17.486Z,5.56
2019-03-13T03:58:46.066Z,5.61
2019-03-13T04:01:14.153Z,5.58
2019-03-13T04:03:42.316Z,5.59
2019-03-13T04:06:10.456Z,5.64
2019-03-13T04:08:38.536Z,5.57
2019-03-13T04:11:07.483Z,5.60
2019-03-13T04:13:35.587Z,5.55
2019-03-13T04:16:03.613Z,5.53
2019-03-13T04:18:31.600Z,5.54
2019-03-13T04:20:59.651Z,5.56
2019-03-13T04:23:27.665Z,5.59
2019-03-13T04:25:55.705Z,5.56
2019-03-13T04:28:23.808Z,5.59
2019-03-13T04:30:52.338Z,5.59
2019-03-13T04:33:20.334Z,5.64
2019-03-13T04:35:48.279Z,5.71
2019-03-13T04:38:16.177Z,5.75
2019-03-13T04:40:44.327Z,5.82
2019-03-13T04:43:12.504Z,5.82
2019-03-13T04:45:40.421Z,5.80
2019-03-13T04:48:09.146Z,5.81
2019-03-13T04:50:37.216Z,5.87
2019-03-13T04:53:05.339Z,5.88
2019-03-13T04:55:33.385Z,5.87
2019-03-13T04:58:01.491Z,5.91
2019-03-13T05:00:29.549Z,5.94
2019-03-13T05:02:57.562Z,5.98
2019-03-13T05:05:57.087Z,5.97
2019-03-13T05:08:44.546Z,6.03
2019-03-13T05:11:04.550Z,6.04
2019-03-13T05:13:32.529Z,6.05
2019-03-13T05:16:00.606Z,6.04
2019-03-13T05:18:28.512Z,6.15
2019-03-13T05:20:56.551Z,6.20
2019-03-13T05:23:25.970Z,6.19
2019-03-13T05:25:54.096Z,6.21
2019-03-13T05:28:22.085Z,6.31
2019-03-13T05:30:52.980Z,6.33
2019-03-13T05:33:20.220Z,6.38
2019-03-13T05:35:48.316Z,6.44
2019-03-13T05:38:16.138Z,6.52
2019-03-13T05:40:44.213Z,6.50
2019-03-13T05:43:12.146Z,6.43
2019-03-13T05:45:40.964Z,6.54
2019-03-13T05:48:08.949Z,6.58
2019-03-13T05:50:37.471Z,6.65
2019-03-13T05:53:05.438Z,6.72
2019-03-13T05:55:33.541Z,6.64
2019-03-13T05:58:01.463Z,6.60
2019-03-13T06:00:29.803Z,6.56
2019-03-13T06:02:58.752Z,6.58
2019-03-13T06:05:26.927Z,6.53
2019-03-13T06:07:55.075Z,6.64
2019-03-13T06:10:23.166Z,6.73
2019-03-13T06:12:51.114Z,6.72
2019-03-13T06:15:19.111Z,6.94
2019-03-13T06:17:47.134Z,6.97
2019-03-13T06:20:15.268Z,6.98
2019-03-13T06:22:43.305Z,7.04
2019-03-13T06:25:11.688Z,6.98
2019-03-13T06:27:39.641Z,6.93
2019-03-13T06:30:09.074Z,6.87
2019-03-13T06:32:37.023Z,6.80
2019-03-13T06:35:05.410Z,6.80
2019-03-13T06:37:33.636Z,6.75
2019-03-13T06:40:06.910Z,6.68
2019-03-13T06:42:34.955Z,6.66
2019-03-13T06:45:03.118Z,6.64
2019-03-13T06:47:31.076Z,6.62
2019-03-13T06:49:59.304Z,6.60
2019-03-13T06:52:27.319Z,7.30
2019-03-13T06:54:55.433Z,7.83
2019-03-13T06:57:23.347Z,8.47
2019-03-13T07:00:22.597Z,8.82
2019-03-13T07:03:09.885Z,9.06
2019-03-13T07:05:56.699Z,9.31
2019-03-13T07:08:59.393Z,9.40
2019-03-13T07:11:47.598Z,9.28
2019-03-13T07:14:26.522Z,9.15
2019-03-13T07:17:06.470Z,8.78
2019-03-13T07:19:59.585Z,8.34
2019-03-13T07:22:45.812Z,8.02
2019-03-13T07:25:31.845Z,7.77
2019-03-13T07:28:29.249Z,7.70
2019-03-13T07:31:34.754Z,7.53
2019-03-13T07:34:24.893Z,7.55
2019-03-13T07:37:02.846Z,7.38
2019-03-13T07:40:05.136Z,7.37
2019-03-13T07:42:55.552Z,7.28
2019-03-13T07:45:55.392Z,7.34
2019-03-13T07:48:45.682Z,7.31
2019-03-13T07:51:28.581Z,7.25
2019-03-13T07:54:16.099Z,7.35
2019-03-13T07:57:01.954Z,7.25
2019-03-13T07:59:55.249Z,7.22
2019-03-13T08:02:42.565Z,7.29
2019-03-13T08:05:18.072Z,7.50
2019-03-13T08:08:05.590Z,7.46
2019-03-13T08:11:08.158Z,7.40
2019-03-13T08:13:54.399Z,7.49
2019-03-13T08:16:46.692Z,7.53
2019-03-13T08:19:40.443Z,7.61
2019-03-13T08:22:26.344Z,7.69
2019-03-13T08:25:29.030Z,7.70
2019-03-13T08:31:37.132Z,7.83
2019-03-13T08:34:36.527Z,7.89
2019-03-13T08:37:17.104Z,8.02
2019-03-13T08:40:13.895Z,8.06
2019-03-13T08:43:00.561Z,8.19
2019-03-13T08:45:46.943Z,8.31
2019-03-13T08:48:24.549Z,8.37
2019-03-13T08:51:16.685Z,8.34
2019-03-13T08:54:04.177Z,8.38
2019-03-13T08:56:49.979Z,8.32
2019-03-13T08:59:33.280Z,8.33
2019-03-13T09:02:05.742Z,8.39
2019-03-13T09:04:59.306Z,8.31
2019-03-13T09:07:44.374Z,8.38
2019-03-13T09:10:31.513Z,8.41
2019-03-13T09:13:11.434Z,8.42
2019-03-13T09:15:46.960Z,8.49
2019-03-13T09:18:37.209Z,8.60
2019-03-13T09:21:20.160Z,8.65
2019-03-13T09:24:23.016Z,8.61
2019-03-13T09:27:09.344Z,8.62
2019-03-13T09:30:02.544Z,8.82
2019-03-13T09:32:52.914Z,8.95
2019-03-13T09:35:55.423Z,9.06
2019-03-13T09:38:31.682Z,8.96
2019-03-13T09:41:10.787Z,9.12
2019-03-13T09:43:59.605Z,9.20
2019-03-13T09:46:44.454Z,9.26
2019-03-13T09:49:53.765Z,9.33
2019-03-13T09:52:39.842Z,9.45
2019-03-13T09:55:34.485Z,9.68
2019-03-13T09:58:25.571Z,9.84
2019-03-13T10:01:13.958Z,9.86
2019-03-13T10:03:54.736Z,9.73
2019-03-13T10:06:37.758Z,9.54
2019-03-13T10:09:21.973Z,9.44
2019-03-13T10:11:57.930Z,9.41
2019-03-13T10:14:47.864Z,9.44
2019-03-13T10:17:30.435Z,9.32
2019-03-13T10:20:35.586Z,9.52
2019-03-13T10:23:21.770Z,9.62
2019-03-13T10:26:08.510Z,9.77
2019-03-13T10:28:48.686Z,9.83
2019-03-13T10:31:24.766Z,9.93
2019-03-13T10:34:07.860Z,10.14
2019-03-13T10:37:00.956Z,10.17
2019-03-13T10:39:43.526Z,10.23
2019-03-13T10:42:24.214Z,10.40
2019-03-13T10:45:07.815Z,10.24
2019-03-13T10:47:44.660Z,10.15
2019-03-13T10:50:31.180Z,10.11
2019-03-13T10:53:21.293Z,10.07
2019-03-13T10:56:07.955Z,10.04
2019-03-13T10:58:58.246Z,9.96
2019-03-13T11:02:00.845Z,9.97
2019-03-13T11:04:38.581Z,10.00
2019-03-13T11:07:28.585Z,10.46
2019-03-13T11:10:14.061Z,10.54
2019-03-13T11:13:07.332Z,10.69
2019-03-13T11:16:06.978Z,10.94
2019-03-13T11:18:49.499Z,10.88
2019-03-13T11:21:34.285Z,10.86
2019-03-13T11:24:14.750Z,10.90
2019-03-13T11:27:02.273Z,10.98
2019-03-13T11:29:40.126Z,11.07
2019-03-13T11:32:43.133Z,11.37
2019-03-13T11:35:36.550Z,11.64
2019-03-13T11:38:24.207Z,11.74
2019-03-13T11:41:09.207Z,11.49
2019-03-13T11:43:52.129Z,11.76
2019-03-13T11:46:45.621Z,12.00
2019-03-13T11:49:39.415Z,12.29
2019-03-13T11:52:30.522Z,12.29
2019-03-13T11:55:17.936Z,12.05
2019-03-13T11:58:20.297Z,11.85
2019-03-13T12:01:17.181Z,11.66
2019-03-13T12:04:21.639Z,11.55
2019-03-13T12:06:56.767Z,11.92
2019-03-13T12:09:42.136Z,11.95
2019-03-13T12:12:47.919Z,11.87
2019-03-13T12:15:24.993Z,11.79
2019-03-13T12:18:10.265Z,11.80
2019-03-13T12:21:00.840Z,12.14
2019-03-13T12:23:48.161Z,12.19
2019-03-13T12:26:50.904Z,12.68
2019-03-13T12:29:27.875Z,12.68
2019-03-13T12:32:27.311Z,12.84
2019-03-13T12:35:13.148Z,12.57
2019-03-13T12:38:01.201Z,12.45
2019-03-13T12:40:48.416Z,12.59
2019-03-13T12:43:32.396Z,12.82
2019-03-13T12:46:19.867Z,13.09
2019-03-13T12:48:57.534Z,13.07
2019-03-13T12:51:38.662Z,13.22
2019-03-13T12:54:16.184Z,13.08
2019-03-13T12:57:12.580Z,13.16
2019-03-13T12:59:58.915Z,12.90
2019-03-13T13:02:55.395Z,12.90
2019-03-13T13:05:51.502Z,13.25
2019-03-13T13:08:41.700Z,13.52
2019-03-13T13:11:27.990Z,13.66
2019-03-13T13:14:15.243Z,13.66
2019-03-13T13:17:02.693Z,13.67
2019-03-13T13:19:30.721Z,13.90
2019-03-13T13:21:58.884Z,13.90
2019-03-13T13:24:26.742Z,14.07
2019-03-13T13:26:54.771Z,14.34
2019-03-13T13:29:22.902Z,14.34
2019-03-13T13:31:51.010Z,14.62
2019-03-13T13:34:19.140Z,14.24
2019-03-13T13:36:47.204Z,14.24
2019-03-13T13:39:15.229Z,14.30
2019-03-13T13:41:43.278Z,14.60
2019-03-13T13:44:11.363Z,14.55
2019-03-13T13:46:40.241Z,14.55
2019-03-13T13:49:08.346Z,14.32
2019-03-13T13:51:37.158Z,13.93
2019-03-13T13:54:05.347Z,13.52
2019-03-13T13:56:33.459Z,13.52
2019-03-13T13:59:01.400Z,13.35
2019-03-13T14:01:29.430Z,13.42
2019-03-13T14:03:57.866Z,13.42
2019-03-13T14:06:26.079Z,13.28
2019-03-13T14:08:54.243Z,13.38
2019-03-13T14:11:22.433Z,13.69
2019-03-13T14:13:50.459Z,13.76
2019-03-13T14:16:18.693Z,13.70
2019-03-13T14:18:46.878Z,13.70
2019-03-13T14:21:15.027Z,13.60
2019-03-13T14:23:43.049Z,13.22
2019-03-13T14:26:11.144Z,13.03
2019-03-13T14:28:39.789Z,13.03
2019-03-13T14:31:08.035Z,12.90
2019-03-13T14:33:36.388Z,12.77
2019-03-13T14:36:04.476Z,12.77
2019-03-13T14:38:32.448Z,12.73
2019-03-13T14:41:00.573Z,12.63
2019-03-13T14:43:28.693Z,12.48
2019-03-13T14:45:56.922Z,12.57
2019-03-13T14:48:24.985Z,12.49
2019-03-13T14:50:53.146Z,12.38
2019-03-13T14:53:21.224Z,12.38
2019-03-13T14:55:49.345Z,12.20
2019-03-13T14:58:17.400Z,12.32
2019-03-13T15:00:45.487Z,12.32
2019-03-13T15:03:13.585Z,12.65
2019-03-13T15:05:42.084Z,12.65
2019-03-13T15:08:10.218Z,12.58
2019-03-13T15:10:38.366Z,12.38
2019-03-13T15:13:06.532Z,12.30
2019-03-13T15:15:34.660Z,12.13
2019-03-13T15:18:02.670Z,12.13
2019-03-13T15:20:30.905Z,12.06
2019-03-13T15:22:58.963Z,12.04
2019-03-13T15:25:26.934Z,12.04
2019-03-13T15:27:54.982Z,11.99
2019-03-13T15:30:25.376Z,11.97
2019-03-13T15:32:53.629Z,11.88
2019-03-13T15:35:21.757Z,11.78
2019-03-13T15:37:49.692Z,11.76
2019-03-13T15:40:17.883Z,11.72
2019-03-13T15:42:46.396Z,11.66
2019-03-13T15:45:16.028Z,11.67
2019-03-13T15:47:44.167Z,11.69
2019-03-13T15:50:12.897Z,11.55
2019-03-13T15:52:41.017Z,11.55
2019-03-13T15:55:10.199Z,11.56
2019-03-13T15:57:38.791Z,11.57
2019-03-13T16:00:12.262Z,11.42
2019-03-13T16:02:40.392Z,11.50
2019-03-13T16:05:08.552Z,11.35
2019-03-13T16:07:36.758Z,11.36
2019-03-13T16:10:05.424Z,11.23
2019-03-13T16:12:33.532Z,11.28
2019-03-13T16:15:01.473Z,11.25
2019-03-13T16:17:29.671Z,11.20
2019-03-13T16:19:57.741Z,11.10
2019-03-13T16:22:25.874Z,11.13
2019-03-13T16:24:53.907Z,11.08
2019-03-13T16:27:22.079Z,11.04
2019-03-13T16:29:50.149Z,10.95
2019-03-13T16:32:19.371Z,10.97
2019-03-13T16:34:47.401Z,10.98
2019-03-13T16:37:15.598Z,11.01
2019-03-13T16:39:43.742Z,11.01
2019-03-13T16:42:11.853Z,10.94
2019-03-13T16:44:39.867Z,10.88
2019-03-13T16:47:07.989Z,10.82
2019-03-13T16:49:39.059Z,10.70
2019-03-13T16:52:06.045Z,10.62
2019-03-13T16:54:34.077Z,10.62
2019-03-13T16:57:02.180Z,10.76
2019-03-13T16:59:30.118Z,10.66
2019-03-13T17:01:58.260Z,10.64
2019-03-13T17:04:26.404Z,10.55
2019-03-13T17:06:54.513Z,10.46
2019-03-13T17:09:22.616Z,10.45
2019-03-13T17:11:51.240Z,10.32
2019-03-13T17:14:20.924Z,10.31
2019-03-13T17:16:48.990Z,10.27
2019-03-13T17:19:17.061Z,10.16
2019-03-13T17:21:45.202Z,10.14
2019-03-13T17:24:13.236Z,10.09
2019-03-13T17:26:41.937Z,10.06
2019-03-13T17:29:09.931Z,10.01
2019-03-13T17:31:38.131Z,10.00
2019-03-13T17:34:06.263Z,9.93
2019-03-13T17:36:34.934Z,10.20
2019-03-13T17:39:04.753Z,10.05
2019-03-13T17:41:32.803Z,9.94
2019-03-13T17:44:00.950Z,9.95
2019-03-13T17:46:29.023Z,9.87
2019-03-13T17:48:57.170Z,9.78
2019-03-13T17:51:25.602Z,9.80
2019-03-13T17:53:53.662Z,9.65
2019-03-13T17:56:21.691Z,9.50
2019-03-13T17:58:49.839Z,9.60
2019-03-13T18:01:18.894Z,9.62
2019-03-13T18:03:49.862Z,9.49
2019-03-13T18:06:29.434Z,9.35
2019-03-13T18:08:57.590Z,9.39
2019-03-13T18:11:25.675Z,9.28
2019-03-13T18:13:54.470Z,9.27
2019-03-13T18:16:22.547Z,9.18
2019-03-13T18:18:50.721Z,9.12
2019-03-13T18:21:20.243Z,9.08
2019-03-13T18:23:48.427Z,8.99
2019-03-13T18:26:16.514Z,8.96
2019-03-13T18:28:45.348Z,9.04
2019-03-13T18:31:13.422Z,9.00
2019-03-13T18:33:41.519Z,9.01
2019-03-13T18:36:09.525Z,8.94
2019-03-13T18:38:37.645Z,8.93
2019-03-13T18:41:05.766Z,9.02
2019-03-13T18:43:33.898Z,9.05
2019-03-13T18:46:01.960Z,9.06
2019-03-13T18:48:29.939Z,8.94
2019-03-13T18:50:57.989Z,9.03
2019-03-13T18:53:25.996Z,8.92
2019-03-13T18:55:54.214Z,8.91
2019-03-13T18:58:22.252Z,8.94
2019-03-13T19:00:50.331Z,8.92
2019-03-13T19:03:18.475Z,8.81
2019-03-13T19:05:46.519Z,8.80
2019-03-13T19:08:17.910Z,8.84
2019-03-13T19:10:46.064Z,8.73
2019-03-13T19:13:14.354Z,8.72
2019-03-13T19:15:43.917Z,8.62
2019-03-13T19:18:12.043Z,8.57
2019-03-13T19:20:41.583Z,8.56
2019-03-13T19:23:09.697Z,8.47
2019-03-13T19:25:37.660Z,8.42
2019-03-13T19:28:05.791Z,8.38
2019-03-13T19:30:33.865Z,8.39
2019-03-13T19:33:02.034Z,8.22
2019-03-13T19:35:30.086Z,8.21
2019-03-13T19:37:58.612Z,8.16
2019-03-13T19:40:26.667Z,8.07
2019-03-13T19:42:54.872Z,8.01
2019-03-13T19:45:31.424Z,7.99
2019-03-13T19:48:01.281Z,7.97
2019-03-13T19:50:29.535Z,7.99
2019-03-13T19:52:57.594Z,8.10
2019-03-13T19:55:25.860Z,8.08
2019-03-13T19:57:53.993Z,8.18
2019-03-13T20:00:22.834Z,8.15
2019-03-13T20:03:00.113Z,8.22
2019-03-13T20:05:21.229Z,8.15
2019-03-13T20:07:50.362Z,8.18
2019-03-13T20:10:21.323Z,8.15
2019-03-13T20:13:02.392Z,7.93
2019-03-13T20:15:30.642Z,7.97
2019-03-13T20:17:58.809Z,7.94
2019-03-13T20:20:26.921Z,7.89
2019-03-13T20:22:57.214Z,7.83
2019-03-13T20:25:25.621Z,7.80
2019-03-13T20:27:54.806Z,7.66
2019-03-13T20:30:23.502Z,7.67
2019-03-13T20:32:51.590Z,7.61
2019-03-13T20:35:19.856Z,7.68
2019-03-13T20:37:47.776Z,7.62
2019-03-13T20:40:19.310Z,7.73
2019-03-13T20:42:47.364Z,7.73
2019-03-13T20:45:18.533Z,7.82
2019-03-13T20:47:46.689Z,7.84
2019-03-13T20:50:14.770Z,7.87
2019-03-13T20:52:45.678Z,7.73
2019-03-13T20:55:13.380Z,7.79
2019-03-13T20:57:41.426Z,7.89
2019-03-13T21:00:11.802Z,7.72
2019-03-13T21:02:39.859Z,7.67
2019-03-13T21:05:07.982Z,7.70
2019-03-13T21:07:36.038Z,7.70
2019-03-13T21:10:04.622Z,7.75
2019-03-13T21:12:32.755Z,7.71
2019-03-13T21:15:08.781Z,7.79
2019-03-13T21:17:36.786Z,7.80
2019-03-13T21:20:05.713Z,7.78
2019-03-13T21:22:33.740Z,7.80
2019-03-13T21:25:01.711Z,7.85
2019-03-13T21:27:29.759Z,7.79
2019-03-13T21:29:58.217Z,7.71
2019-03-13T21:32:26.145Z,7.73
2019-03-13T21:34:54.224Z,7.79
2019-03-13T21:37:22.183Z,7.78
2019-03-13T21:39:50.397Z,7.72
2019-03-13T21:42:18.439Z,7.67
2019-03-13T21:44:46.451Z,7.73
2019-03-13T21:47:14.397Z,7.70
2019-03-13T21:49:42.475Z,7.75
2019-03-13T21:52:11.298Z,7.81
2019-03-13T21:54:39.430Z,7.86
2019-03-13T21:57:07.386Z,7.80
2019-03-13T21:59:35.407Z,7.78
2019-03-13T22:02:03.427Z,7.74
2019-03-13T22:04:31.550Z,7.77
2019-03-13T22:06:59.640Z,7.72
2019-03-13T22:09:27.655Z,7.69
2019-03-13T22:11:55.738Z,7.74
2019-03-13T22:14:23.648Z,7.74
2019-03-13T22:16:54.792Z,7.71
2019-03-13T22:19:22.970Z,7.66
2019-03-13T22:21:50.955Z,7.65
2019-03-13T22:24:18.951Z,7.69
2019-03-13T22:26:47.030Z,7.73
2019-03-13T22:29:15.047Z,7.71
2019-03-13T22:31:43.152Z,7.71
2019-03-13T22:34:11.197Z,7.72
2019-03-13T22:36:39.315Z,7.66
2019-03-13T22:39:07.683Z,7.73
2019-03-13T22:41:36.771Z,7.82
2019-03-13T22:44:05.726Z,7.77
2019-03-13T22:46:34.421Z,7.83
2019-03-13T22:49:02.341Z,7.76
2019-03-13T22:51:30.412Z,7.71
2019-03-13T22:53:58.433Z,7.73
2019-03-13T22:56:26.517Z,7.66
2019-03-13T22:58:54.433Z,7.69
2019-03-13T23:01:23.727Z,7.68
2019-03-13T23:03:51.739Z,7.65
2019-03-13T23:06:20.125Z,7.76
2019-03-13T23:08:48.260Z,7.81
2019-03-13T23:11:17.093Z,7.75
2019-03-13T23:13:45.149Z,7.85
2019-03-13T23:16:13.271Z,7.97
2019-03-13T23:18:41.230Z,8.01
2019-03-13T23:21:09.417Z,8.00
2019-03-13T23:23:37.451Z,7.92
2019-03-13T23:26:05.582Z,7.96
2019-03-13T23:28:33.527Z,7.97
2019-03-13T23:31:01.656Z,7.95
2019-03-13T23:33:29.748Z,7.83
2019-03-13T23:35:58.508Z,7.85
2019-03-13T23:38:26.617Z,7.84
2019-03-13T23:40:54.925Z,7.79
2019-03-13T23:43:24.716Z,7.69
2019-03-13T23:45:52.761Z,7.72
2019-03-13T23:48:20.742Z,7.77
2019-03-13T23:50:48.611Z,7.70
2019-03-13T23:53:16.763Z,7.62
2019-03-13T23:55:44.783Z,7.67
2019-03-13T23:58:12.905Z,7.61
